sensor_id;sensor_type;location;lat;lon;timestamp;P1;durP1;ratioP1;P2;durP2;ratioP2
33954;SDS011;20233;50.804;7.126;2023-06-22T00:01:18;6.43;;;5.50;;
33954;SDS011;20233;50.804;7.126;2023-06-22T00:03:47;6.35;;;5.40;;
33954;SDS011;20233;50.804;7.126;2023-06-22T00:06:14;5.97;;;5.38;;
33954;SDS011;20233;50.804;7.126;2023-06-22T00:08:41;6.35;;;4.85;;
33954;SDS011;20233;50.804;7.126;2023-06-22T00:11:07;5.47;;;4.57;;
33954;SDS011;20233;50.804;7.126;2023-06-22T00:13:33;9.68;;;4.93;;
33954;SDS011;20233;50.804;7.126;2023-06-22T00:16:00;7.55;;;5.63;;
33954;SDS011;20233;50.804;7.126;2023-06-22T00:18:26;6.70;;;5.65;;
33954;SDS011;20233;50.804;7.126;2023-06-22T00:20:54;7.57;;;5.05;;
33954;SDS011;20233;50.804;7.126;2023-06-22T00:23:23;5.65;;;5.00;;
33954;SDS011;20233;50.804;7.126;2023-06-22T00:25:50;6.75;;;4.68;;
33954;SDS011;20233;50.804;7.126;2023-06-22T00:28:18;7.38;;;4.95;;
33954;SDS011;20233;50.804;7.126;2023-06-22T00:30:45;5.97;;;5.28;;
33954;SDS011;20233;50.804;7.126;2023-06-22T00:33:11;6.63;;;5.05;;
33954;SDS011;20233;50.804;7.126;2023-06-22T00:35:38;5.85;;;4.75;;
33954;SDS011;20233;50.804;7.126;2023-06-22T00:38:06;7.20;;;4.82;;
33954;SDS011;20233;50.804;7.126;2023-06-22T00:40:33;6.95;;;4.95;;
33954;SDS011;20233;50.804;7.126;2023-06-22T00:43:01;7.65;;;5.90;;
33954;SDS011;20233;50.804;7.126;2023-06-22T00:45:27;6.60;;;4.95;;
33954;SDS011;20233;50.804;7.126;2023-06-22T00:47:57;7.45;;;4.88;;
33954;SDS011;20233;50.804;7.126;2023-06-22T00:50:27;6.27;;;4.80;;
33954;SDS011;20233;50.804;7.126;2023-06-22T00:52:59;7.60;;;5.43;;
33954;SDS011;20233;50.804;7.126;2023-06-22T00:57:55;6.22;;;5.63;;
33954;SDS011;20233;50.804;7.126;2023-06-22T01:00:23;6.57;;;5.88;;
33954;SDS011;20233;50.804;7.126;2023-06-22T01:02:50;6.13;;;5.38;;
33954;SDS011;20233;50.804;7.126;2023-06-22T01:05:21;6.15;;;5.13;;
33954;SDS011;20233;50.804;7.126;2023-06-22T01:08:04;6.80;;;5.03;;
33954;SDS011;20233;50.804;7.126;2023-06-22T01:10:40;6.47;;;5.30;;
33954;SDS011;20233;50.804;7.126;2023-06-22T01:18:40;6.15;;;4.97;;
33954;SDS011;20233;50.804;7.126;2023-06-22T01:21:10;8.10;;;5.40;;
33954;SDS011;20233;50.804;7.126;2023-06-22T01:26:22;7.38;;;5.68;;
33954;SDS011;20233;50.804;7.126;2023-06-22T01:29:02;6.60;;;5.75;;
33954;SDS011;20233;50.804;7.126;2023-06-22T01:31:30;6.65;;;5.93;;
33954;SDS011;20233;50.804;7.126;2023-06-22T01:34:01;6.50;;;5.68;;
33954;SDS011;20233;50.804;7.126;2023-06-22T01:36:30;9.32;;;5.72;;
33954;SDS011;20233;50.804;7.126;2023-06-22T01:38:59;6.72;;;6.10;;
33954;SDS011;20233;50.804;7.126;2023-06-22T01:41:27;6.88;;;5.85;;
33954;SDS011;20233;50.804;7.126;2023-06-22T01:43:56;5.88;;;5.28;;
33954;SDS011;20233;50.804;7.126;2023-06-22T01:46:22;6.95;;;6.00;;
33954;SDS011;20233;50.804;7.126;2023-06-22T01:48:50;7.95;;;5.78;;
33954;SDS011;20233;50.804;7.126;2023-06-22T01:51:17;10.32;;;5.47;;
33954;SDS011;20233;50.804;7.126;2023-06-22T01:53:43;7.00;;;5.70;;
33954;SDS011;20233;50.804;7.126;2023-06-22T01:56:13;6.07;;;5.47;;
33954;SDS011;20233;50.804;7.126;2023-06-22T01:58:46;6.95;;;5.63;;
33954;SDS011;20233;50.804;7.126;2023-06-22T02:01:18;6.00;;;5.30;;
33954;SDS011;20233;50.804;7.126;2023-06-22T02:03:52;7.20;;;6.50;;
33954;SDS011;20233;50.804;7.126;2023-06-22T02:06:30;6.53;;;5.75;;
33954;SDS011;20233;50.804;7.126;2023-06-22T02:09:02;6.75;;;5.47;;
33954;SDS011;20233;50.804;7.126;2023-06-22T02:11:33;6.95;;;5.55;;
33954;SDS011;20233;50.804;7.126;2023-06-22T02:14:02;7.32;;;5.68;;
33954;SDS011;20233;50.804;7.126;2023-06-22T02:16:31;6.15;;;5.55;;
33954;SDS011;20233;50.804;7.126;2023-06-22T02:19:00;7.00;;;6.30;;
33954;SDS011;20233;50.804;7.126;2023-06-22T02:21:31;8.38;;;6.13;;
33954;SDS011;20233;50.804;7.126;2023-06-22T02:23:58;9.27;;;6.15;;
33954;SDS011;20233;50.804;7.126;2023-06-22T02:26:27;7.07;;;6.10;;
33954;SDS011;20233;50.804;7.126;2023-06-22T02:28:54;6.90;;;5.80;;
33954;SDS011;20233;50.804;7.126;2023-06-22T02:31:20;7.07;;;6.38;;
33954;SDS011;20233;50.804;7.126;2023-06-22T02:33:47;7.35;;;5.95;;
33954;SDS011;20233;50.804;7.126;2023-06-22T02:36:14;7.93;;;6.78;;
33954;SDS011;20233;50.804;7.126;2023-06-22T02:38:41;9.80;;;6.70;;
33954;SDS011;20233;50.804;7.126;2023-06-22T02:41:14;7.55;;;6.38;;
33954;SDS011;20233;50.804;7.126;2023-06-22T02:43:44;8.50;;;7.22;;
33954;SDS011;20233;50.804;7.126;2023-06-22T02:46:11;8.38;;;7.10;;
33954;SDS011;20233;50.804;7.126;2023-06-22T02:48:38;7.65;;;6.72;;
33954;SDS011;20233;50.804;7.126;2023-06-22T02:51:06;7.53;;;6.35;;
33954;SDS011;20233;50.804;7.126;2023-06-22T02:53:34;8.93;;;7.18;;
33954;SDS011;20233;50.804;7.126;2023-06-22T02:56:01;7.72;;;6.85;;
33954;SDS011;20233;50.804;7.126;2023-06-22T02:58:31;8.13;;;7.10;;
33954;SDS011;20233;50.804;7.126;2023-06-22T03:01:04;7.75;;;6.93;;
33954;SDS011;20233;50.804;7.126;2023-06-22T03:03:31;8.52;;;7.00;;
33954;SDS011;20233;50.804;7.126;2023-06-22T03:05:58;7.65;;;6.88;;
33954;SDS011;20233;50.804;7.126;2023-06-22T03:08:26;11.15;;;6.78;;
33954;SDS011;20233;50.804;7.126;2023-06-22T03:10:54;10.68;;;7.03;;
33954;SDS011;20233;50.804;7.126;2023-06-22T03:13:21;8.85;;;7.88;;
33954;SDS011;20233;50.804;7.126;2023-06-22T03:15:47;11.93;;;7.82;;
33954;SDS011;20233;50.804;7.126;2023-06-22T03:18:14;7.95;;;6.95;;
33954;SDS011;20233;50.804;7.126;2023-06-22T03:20:41;9.45;;;8.35;;
33954;SDS011;20233;50.804;7.126;2023-06-22T03:23:08;8.63;;;7.57;;
33954;SDS011;20233;50.804;7.126;2023-06-22T03:25:35;11.20;;;7.78;;
33954;SDS011;20233;50.804;7.126;2023-06-22T03:28:01;10.70;;;7.35;;
33954;SDS011;20233;50.804;7.126;2023-06-22T03:30:27;8.93;;;8.13;;
33954;SDS011;20233;50.804;7.126;2023-06-22T03:32:54;10.30;;;8.40;;
33954;SDS011;20233;50.804;7.126;2023-06-22T03:35:20;9.48;;;8.27;;
33954;SDS011;20233;50.804;7.126;2023-06-22T03:37:47;12.18;;;8.40;;
33954;SDS011;20233;50.804;7.126;2023-06-22T03:40:13;9.98;;;8.88;;
33954;SDS011;20233;50.804;7.126;2023-06-22T03:42:40;10.95;;;8.45;;
33954;SDS011;20233;50.804;7.126;2023-06-22T03:45:07;8.98;;;8.07;;
33954;SDS011;20233;50.804;7.126;2023-06-22T03:47:35;8.93;;;8.02;;
33954;SDS011;20233;50.804;7.126;2023-06-22T03:50:02;9.35;;;8.45;;
33954;SDS011;20233;50.804;7.126;2023-06-22T03:52:29;8.95;;;7.47;;
33954;SDS011;20233;50.804;7.126;2023-06-22T03:54:56;10.60;;;7.72;;
33954;SDS011;20233;50.804;7.126;2023-06-22T03:57:21;9.85;;;8.63;;
33954;SDS011;20233;50.804;7.126;2023-06-22T03:59:48;9.02;;;8.23;;
33954;SDS011;20233;50.804;7.126;2023-06-22T04:02:15;11.13;;;8.13;;
33954;SDS011;20233;50.804;7.126;2023-06-22T04:04:41;9.27;;;8.32;;
33954;SDS011;20233;50.804;7.126;2023-06-22T04:07:08;11.63;;;8.98;;
33954;SDS011;20233;50.804;7.126;2023-06-22T04:09:35;8.95;;;7.88;;
33954;SDS011;20233;50.804;7.126;2023-06-22T04:12:04;10.23;;;8.75;;
33954;SDS011;20233;50.804;7.126;2023-06-22T04:14:30;10.63;;;7.88;;
33954;SDS011;20233;50.804;7.126;2023-06-22T04:16:57;12.38;;;8.50;;
33954;SDS011;20233;50.804;7.126;2023-06-22T04:19:23;9.40;;;8.45;;
33954;SDS011;20233;50.804;7.126;2023-06-22T04:21:50;8.68;;;7.78;;
33954;SDS011;20233;50.804;7.126;2023-06-22T04:24:17;8.40;;;7.28;;
33954;SDS011;20233;50.804;7.126;2023-06-22T04:26:43;9.43;;;8.43;;
33954;SDS011;20233;50.804;7.126;2023-06-22T04:29:12;9.35;;;7.53;;
33954;SDS011;20233;50.804;7.126;2023-06-22T04:31:39;9.82;;;8.02;;
33954;SDS011;20233;50.804;7.126;2023-06-22T04:34:06;10.85;;;9.13;;
33954;SDS011;20233;50.804;7.126;2023-06-22T04:36:33;8.63;;;7.78;;
33954;SDS011;20233;50.804;7.126;2023-06-22T04:39:05;10.00;;;8.85;;
33954;SDS011;20233;50.804;7.126;2023-06-22T04:41:36;14.15;;;8.80;;
33954;SDS011;20233;50.804;7.126;2023-06-22T04:44:19;10.85;;;9.23;;
33954;SDS011;20233;50.804;7.126;2023-06-22T04:46:58;26.40;;;8.68;;
33954;SDS011;20233;50.804;7.126;2023-06-22T04:49:28;9.57;;;8.57;;
33954;SDS011;20233;50.804;7.126;2023-06-22T04:51:59;9.82;;;8.70;;
33954;SDS011;20233;50.804;7.126;2023-06-22T04:54:26;9.90;;;8.75;;
33954;SDS011;20233;50.804;7.126;2023-06-22T04:56:53;10.68;;;8.73;;
33954;SDS011;20233;50.804;7.126;2023-06-22T04:59:26;11.68;;;9.10;;
33954;SDS011;20233;50.804;7.126;2023-06-22T05:01:57;9.90;;;8.75;;
33954;SDS011;20233;50.804;7.126;2023-06-22T05:04:25;9.50;;;8.60;;
33954;SDS011;20233;50.804;7.126;2023-06-22T05:06:53;9.73;;;8.73;;
33954;SDS011;20233;50.804;7.126;2023-06-22T05:09:20;12.80;;;8.80;;
33954;SDS011;20233;50.804;7.126;2023-06-22T05:11:47;9.57;;;8.57;;
33954;SDS011;20233;50.804;7.126;2023-06-22T05:14:13;9.88;;;8.90;;
33954;SDS011;20233;50.804;7.126;2023-06-22T05:16:43;9.80;;;8.25;;
33954;SDS011;20233;50.804;7.126;2023-06-22T05:19:12;11.57;;;8.43;;
33954;SDS011;20233;50.804;7.126;2023-06-22T05:21:39;11.38;;;9.30;;
33954;SDS011;20233;50.804;7.126;2023-06-22T05:24:07;14.85;;;8.90;;
33954;SDS011;20233;50.804;7.126;2023-06-22T05:26:33;10.23;;;8.95;;
33954;SDS011;20233;50.804;7.126;2023-06-22T05:29:02;11.95;;;9.38;;
33954;SDS011;20233;50.804;7.126;2023-06-22T05:31:30;10.63;;;8.52;;
33954;SDS011;20233;50.804;7.126;2023-06-22T05:33:58;12.38;;;9.27;;
33954;SDS011;20233;50.804;7.126;2023-06-22T05:36:26;11.55;;;8.93;;
33954;SDS011;20233;50.804;7.126;2023-06-22T05:38:53;14.07;;;9.15;;
33954;SDS011;20233;50.804;7.126;2023-06-22T05:41:22;9.30;;;8.13;;
33954;SDS011;20233;50.804;7.126;2023-06-22T05:43:49;10.23;;;8.57;;
33954;SDS011;20233;50.804;7.126;2023-06-22T05:46:18;10.73;;;8.05;;
33954;SDS011;20233;50.804;7.126;2023-06-22T05:48:50;9.52;;;8.52;;
33954;SDS011;20233;50.804;7.126;2023-06-22T05:51:18;8.48;;;7.68;;
33954;SDS011;20233;50.804;7.126;2023-06-22T05:53:46;9.57;;;8.48;;
33954;SDS011;20233;50.804;7.126;2023-06-22T05:56:15;15.75;;;8.75;;
33954;SDS011;20233;50.804;7.126;2023-06-22T05:58:43;11.40;;;8.55;;
33954;SDS011;20233;50.804;7.126;2023-06-22T06:01:10;9.55;;;7.80;;
33954;SDS011;20233;50.804;7.126;2023-06-22T06:03:37;10.05;;;7.75;;
33954;SDS011;20233;50.804;7.126;2023-06-22T06:06:09;12.20;;;8.90;;
33954;SDS011;20233;50.804;7.126;2023-06-22T06:08:39;10.50;;;8.00;;
33954;SDS011;20233;50.804;7.126;2023-06-22T06:11:06;13.07;;;7.75;;
33954;SDS011;20233;50.804;7.126;2023-06-22T06:13:33;9.40;;;7.97;;
33954;SDS011;20233;50.804;7.126;2023-06-22T06:16:00;8.18;;;7.35;;
33954;SDS011;20233;50.804;7.126;2023-06-22T06:18:27;12.73;;;8.43;;
33954;SDS011;20233;50.804;7.126;2023-06-22T06:20:53;12.75;;;8.43;;
33954;SDS011;20233;50.804;7.126;2023-06-22T06:23:19;17.90;;;9.35;;
33954;SDS011;20233;50.804;7.126;2023-06-22T06:25:46;8.93;;;7.10;;
33954;SDS011;20233;50.804;7.126;2023-06-22T06:28:13;7.93;;;7.13;;
33954;SDS011;20233;50.804;7.126;2023-06-22T06:30:40;11.68;;;7.70;;
33954;SDS011;20233;50.804;7.126;2023-06-22T06:33:07;11.48;;;7.30;;
33954;SDS011;20233;50.804;7.126;2023-06-22T06:35:35;10.88;;;7.68;;
33954;SDS011;20233;50.804;7.126;2023-06-22T06:38:01;10.20;;;7.35;;
33954;SDS011;20233;50.804;7.126;2023-06-22T06:40:27;11.32;;;9.85;;
33954;SDS011;20233;50.804;7.126;2023-06-22T06:42:53;19.75;;;17.85;;
33954;SDS011;20233;50.804;7.126;2023-06-22T06:45:21;10.73;;;8.73;;
33954;SDS011;20233;50.804;7.126;2023-06-22T06:47:51;12.57;;;8.43;;
33954;SDS011;20233;50.804;7.126;2023-06-22T06:50:18;9.38;;;8.10;;
33954;SDS011;20233;50.804;7.126;2023-06-22T06:52:44;13.15;;;8.43;;
33954;SDS011;20233;50.804;7.126;2023-06-22T06:55:12;11.38;;;9.13;;
33954;SDS011;20233;50.804;7.126;2023-06-22T06:57:39;10.13;;;7.78;;
33954;SDS011;20233;50.804;7.126;2023-06-22T07:00:08;9.50;;;6.80;;
33954;SDS011;20233;50.804;7.126;2023-06-22T07:02:39;8.52;;;6.68;;
33954;SDS011;20233;50.804;7.126;2023-06-22T07:05:08;9.40;;;7.18;;
33954;SDS011;20233;50.804;7.126;2023-06-22T07:07:38;8.85;;;7.13;;
33954;SDS011;20233;50.804;7.126;2023-06-22T07:10:07;8.90;;;7.68;;
33954;SDS011;20233;50.804;7.126;2023-06-22T07:12:34;7.32;;;6.50;;
33954;SDS011;20233;50.804;7.126;2023-06-22T07:15:03;9.20;;;7.43;;
33954;SDS011;20233;50.804;7.126;2023-06-22T07:17:33;9.48;;;6.97;;
33954;SDS011;20233;50.804;7.126;2023-06-22T07:20:00;7.90;;;7.10;;
33954;SDS011;20233;50.804;7.126;2023-06-22T07:22:29;7.55;;;6.78;;
33954;SDS011;20233;50.804;7.126;2023-06-22T07:24:56;8.90;;;7.35;;
33954;SDS011;20233;50.804;7.126;2023-06-22T07:27:22;9.07;;;7.57;;
33954;SDS011;20233;50.804;7.126;2023-06-22T07:29:48;10.63;;;7.35;;
33954;SDS011;20233;50.804;7.126;2023-06-22T07:32:15;10.02;;;8.38;;
33954;SDS011;20233;50.804;7.126;2023-06-22T07:34:42;8.35;;;7.55;;
33954;SDS011;20233;50.804;7.126;2023-06-22T07:37:09;9.43;;;7.82;;
33954;SDS011;20233;50.804;7.126;2023-06-22T07:39:36;9.88;;;7.82;;
33954;SDS011;20233;50.804;7.126;2023-06-22T07:42:03;8.63;;;7.45;;
33954;SDS011;20233;50.804;7.126;2023-06-22T07:44:30;8.43;;;7.20;;
33954;SDS011;20233;50.804;7.126;2023-06-22T07:46:57;9.20;;;7.93;;
33954;SDS011;20233;50.804;7.126;2023-06-22T07:49:24;8.10;;;7.30;;
33954;SDS011;20233;50.804;7.126;2023-06-22T07:51:51;8.77;;;7.82;;
33954;SDS011;20233;50.804;7.126;2023-06-22T07:54:18;8.43;;;7.63;;
33954;SDS011;20233;50.804;7.126;2023-06-22T07:56:46;8.40;;;7.43;;
33954;SDS011;20233;50.804;7.126;2023-06-22T07:59:13;8.32;;;7.50;;
33954;SDS011;20233;50.804;7.126;2023-06-22T08:01:41;8.43;;;7.68;;
33954;SDS011;20233;50.804;7.126;2023-06-22T08:04:09;10.80;;;8.30;;
33954;SDS011;20233;50.804;7.126;2023-06-22T08:06:35;8.80;;;7.07;;
33954;SDS011;20233;50.804;7.126;2023-06-22T08:09:03;8.25;;;7.45;;
33954;SDS011;20233;50.804;7.126;2023-06-22T08:11:29;8.02;;;7.15;;
33954;SDS011;20233;50.804;7.126;2023-06-22T08:14:00;11.55;;;8.65;;
33954;SDS011;20233;50.804;7.126;2023-06-22T08:16:27;10.07;;;7.72;;
33954;SDS011;20233;50.804;7.126;2023-06-22T08:18:54;11.13;;;7.80;;
33954;SDS011;20233;50.804;7.126;2023-06-22T08:21:21;13.63;;;7.90;;
33954;SDS011;20233;50.804;7.126;2023-06-22T08:23:48;12.40;;;7.93;;
33954;SDS011;20233;50.804;7.126;2023-06-22T08:26:16;9.95;;;8.95;;
33954;SDS011;20233;50.804;7.126;2023-06-22T08:28:43;9.77;;;8.02;;
33954;SDS011;20233;50.804;7.126;2023-06-22T08:31:10;9.48;;;8.57;;
33954;SDS011;20233;50.804;7.126;2023-06-22T08:33:41;10.02;;;7.90;;
33954;SDS011;20233;50.804;7.126;2023-06-22T08:36:11;10.55;;;8.45;;
33954;SDS011;20233;50.804;7.126;2023-06-22T08:38:39;10.52;;;8.32;;
33954;SDS011;20233;50.804;7.126;2023-06-22T08:41:17;12.95;;;7.93;;
33954;SDS011;20233;50.804;7.126;2023-06-22T08:43:45;10.05;;;8.35;;
33954;SDS011;20233;50.804;7.126;2023-06-22T08:46:13;23.25;;;10.00;;
33954;SDS011;20233;50.804;7.126;2023-06-22T08:48:45;24.50;;;9.88;;
33954;SDS011;20233;50.804;7.126;2023-06-22T08:51:13;15.15;;;9.13;;
33954;SDS011;20233;50.804;7.126;2023-06-22T08:53:41;8.40;;;7.70;;
33954;SDS011;20233;50.804;7.126;2023-06-22T08:56:10;10.10;;;7.97;;
33954;SDS011;20233;50.804;7.126;2023-06-22T08:58:38;8.35;;;7.28;;
33954;SDS011;20233;50.804;7.126;2023-06-22T09:01:06;9.70;;;7.10;;
33954;SDS011;20233;50.804;7.126;2023-06-22T09:03:33;10.05;;;7.85;;
33954;SDS011;20233;50.804;7.126;2023-06-22T09:06:03;15.52;;;7.93;;
33954;SDS011;20233;50.804;7.126;2023-06-22T09:08:29;8.07;;;7.22;;
33954;SDS011;20233;50.804;7.126;2023-06-22T09:10:58;10.98;;;9.88;;
33954;SDS011;20233;50.804;7.126;2023-06-22T09:13:24;8.68;;;7.88;;
33954;SDS011;20233;50.804;7.126;2023-06-22T09:15:52;13.90;;;12.57;;
33954;SDS011;20233;50.804;7.126;2023-06-22T09:18:21;8.60;;;6.93;;
33954;SDS011;20233;50.804;7.126;2023-06-22T09:20:48;8.20;;;7.40;;
33954;SDS011;20233;50.804;7.126;2023-06-22T09:23:16;7.88;;;7.07;;
33954;SDS011;20233;50.804;7.126;2023-06-22T09:25:43;8.15;;;7.15;;
33954;SDS011;20233;50.804;7.126;2023-06-22T09:28:14;8.13;;;6.57;;
33954;SDS011;20233;50.804;7.126;2023-06-22T09:30:44;8.07;;;7.28;;
33954;SDS011;20233;50.804;7.126;2023-06-22T09:33:11;8.77;;;6.32;;
33954;SDS011;20233;50.804;7.126;2023-06-22T09:35:39;15.60;;;7.65;;
33954;SDS011;20233;50.804;7.126;2023-06-22T09:38:06;14.85;;;7.57;;
33954;SDS011;20233;50.804;7.126;2023-06-22T09:40:33;8.13;;;6.38;;
33954;SDS011;20233;50.804;7.126;2023-06-22T09:43:05;12.40;;;6.68;;
33954;SDS011;20233;50.804;7.126;2023-06-22T09:45:32;7.47;;;6.22;;
33954;SDS011;20233;50.804;7.126;2023-06-22T09:47:59;13.63;;;7.28;;
33954;SDS011;20233;50.804;7.126;2023-06-22T09:50:25;7.47;;;6.65;;
33954;SDS011;20233;50.804;7.126;2023-06-22T09:52:53;10.35;;;6.75;;
33954;SDS011;20233;50.804;7.126;2023-06-22T09:55:29;8.18;;;6.13;;
33954;SDS011;20233;50.804;7.126;2023-06-22T09:58:28;6.57;;;5.97;;
33954;SDS011;20233;50.804;7.126;2023-06-22T10:00:56;8.90;;;6.50;;
33954;SDS011;20233;50.804;7.126;2023-06-22T10:03:26;7.05;;;6.35;;
33954;SDS011;20233;50.804;7.126;2023-06-22T10:05:55;7.68;;;6.82;;
33954;SDS011;20233;50.804;7.126;2023-06-22T10:08:27;8.02;;;6.45;;
33954;SDS011;20233;50.804;7.126;2023-06-22T10:11:00;9.15;;;6.55;;
33954;SDS011;20233;50.804;7.126;2023-06-22T10:13:27;8.32;;;6.68;;
33954;SDS011;20233;50.804;7.126;2023-06-22T10:15:55;8.60;;;7.35;;
33954;SDS011;20233;50.804;7.126;2023-06-22T10:18:22;9.60;;;7.68;;
33954;SDS011;20233;50.804;7.126;2023-06-22T10:20:50;7.78;;;7.00;;
33954;SDS011;20233;50.804;7.126;2023-06-22T10:23:27;9.07;;;8.18;;
33954;SDS011;20233;50.804;7.126;2023-06-22T10:25:54;10.27;;;8.40;;
33954;SDS011;20233;50.804;7.126;2023-06-22T10:28:23;8.95;;;7.82;;
33954;SDS011;20233;50.804;7.126;2023-06-22T10:30:50;9.10;;;8.18;;
33954;SDS011;20233;50.804;7.126;2023-06-22T10:33:18;9.73;;;7.90;;
33954;SDS011;20233;50.804;7.126;2023-06-22T10:35:47;9.60;;;7.85;;
33954;SDS011;20233;50.804;7.126;2023-06-22T10:38:23;11.02;;;8.82;;
33954;SDS011;20233;50.804;7.126;2023-06-22T10:41:29;9.35;;;8.45;;
33954;SDS011;20233;50.804;7.126;2023-06-22T10:43:57;13.50;;;9.63;;
33954;SDS011;20233;50.804;7.126;2023-06-22T10:46:26;11.70;;;10.07;;
33954;SDS011;20233;50.804;7.126;2023-06-22T10:48:54;17.00;;;11.70;;
33954;SDS011;20233;50.804;7.126;2023-06-22T10:51:22;15.60;;;11.50;;
33954;SDS011;20233;50.804;7.126;2023-06-22T10:53:49;13.35;;;11.48;;
33954;SDS011;20233;50.804;7.126;2023-06-22T10:56:17;13.15;;;11.52;;
33954;SDS011;20233;50.804;7.126;2023-06-22T10:58:53;15.48;;;12.23;;
33954;SDS011;20233;50.804;7.126;2023-06-22T11:02:23;19.48;;;13.00;;
33954;SDS011;20233;50.804;7.126;2023-06-22T11:05:59;23.00;;;13.80;;
33954;SDS011;20233;50.804;7.126;2023-06-22T11:08:26;17.30;;;12.73;;
33954;SDS011;20233;50.804;7.126;2023-06-22T11:10:54;18.73;;;13.88;;
33954;SDS011;20233;50.804;7.126;2023-06-22T11:13:20;13.73;;;12.27;;
33954;SDS011;20233;50.804;7.126;2023-06-22T11:15:48;19.33;;;14.43;;
33954;SDS011;20233;50.804;7.126;2023-06-22T11:18:15;17.00;;;14.25;;
33954;SDS011;20233;50.804;7.126;2023-06-22T11:20:42;20.98;;;15.18;;
33954;SDS011;20233;50.804;7.126;2023-06-22T11:23:09;20.10;;;14.45;;
33954;SDS011;20233;50.804;7.126;2023-06-22T11:25:38;15.00;;;12.13;;
33954;SDS011;20233;50.804;7.126;2023-06-22T11:28:07;19.38;;;14.10;;
33954;SDS011;20233;50.804;7.126;2023-06-22T11:30:35;15.75;;;12.30;;
33954;SDS011;20233;50.804;7.126;2023-06-22T11:33:02;13.93;;;11.88;;
33954;SDS011;20233;50.804;7.126;2023-06-22T11:35:29;15.77;;;13.00;;
33954;SDS011;20233;50.804;7.126;2023-06-22T11:37:56;15.52;;;13.88;;
33954;SDS011;20233;50.804;7.126;2023-06-22T11:40:23;16.67;;;14.25;;
33954;SDS011;20233;50.804;7.126;2023-06-22T11:42:51;16.33;;;14.70;;
33954;SDS011;20233;50.804;7.126;2023-06-22T11:45:18;15.35;;;13.70;;
33954;SDS011;20233;50.804;7.126;2023-06-22T11:47:57;15.82;;;14.18;;
33954;SDS011;20233;50.804;7.126;2023-06-22T11:54:39;14.88;;;12.63;;
33954;SDS011;20233;50.804;7.126;2023-06-22T11:58:16;14.85;;;12.30;;
33954;SDS011;20233;50.804;7.126;2023-06-22T12:01:53;12.77;;;11.48;;
33954;SDS011;20233;50.804;7.126;2023-06-22T12:04:37;15.25;;;11.73;;
33954;SDS011;20233;50.804;7.126;2023-06-22T12:07:09;14.70;;;12.93;;
33954;SDS011;20233;50.804;7.126;2023-06-22T12:10:14;14.18;;;12.38;;
33954;SDS011;20233;50.804;7.126;2023-06-22T12:12:49;12.88;;;11.52;;
33954;SDS011;20233;50.804;7.126;2023-06-22T12:16:02;12.52;;;11.23;;
33954;SDS011;20233;50.804;7.126;2023-06-22T12:19:23;12.25;;;11.00;;
33954;SDS011;20233;50.804;7.126;2023-06-22T12:22:01;13.50;;;10.18;;
33954;SDS011;20233;50.804;7.126;2023-06-22T12:24:39;10.25;;;9.15;;
33954;SDS011;20233;50.804;7.126;2023-06-22T12:28:26;9.98;;;8.85;;
33954;SDS011;20233;50.804;7.126;2023-06-22T12:37:01;9.88;;;7.65;;
33954;SDS011;20233;50.804;7.126;2023-06-22T12:44:26;9.38;;;6.57;;
33954;SDS011;20233;50.804;7.126;2023-06-22T12:47:46;7.63;;;5.82;;
33954;SDS011;20233;50.804;7.126;2023-06-22T12:50:21;6.45;;;5.75;;
33954;SDS011;20233;50.804;7.126;2023-06-22T12:59:29;4.50;;;2.90;;
33954;SDS011;20233;50.804;7.126;2023-06-22T13:02:12;6.88;;;2.83;;
33954;SDS011;20233;50.804;7.126;2023-06-22T13:05:11;4.53;;;3.38;;
33954;SDS011;20233;50.804;7.126;2023-06-22T13:13:03;3.22;;;2.67;;
33954;SDS011;20233;50.804;7.126;2023-06-22T13:16:40;5.30;;;3.15;;
33954;SDS011;20233;50.804;7.126;2023-06-22T13:20:00;4.53;;;3.53;;
33954;SDS011;20233;50.804;7.126;2023-06-22T13:22:40;4.68;;;3.58;;
33954;SDS011;20233;50.804;7.126;2023-06-22T13:25:40;5.07;;;3.60;;
33954;SDS011;20233;50.804;7.126;2023-06-22T13:28:49;6.38;;;4.63;;
33954;SDS011;20233;50.804;7.126;2023-06-22T13:35:31;6.97;;;4.68;;
33954;SDS011;20233;50.804;7.126;2023-06-22T13:38:51;5.38;;;4.18;;
33954;SDS011;20233;50.804;7.126;2023-06-22T13:42:17;5.35;;;4.05;;
33954;SDS011;20233;50.804;7.126;2023-06-22T13:45:48;8.23;;;4.72;;
33954;SDS011;20233;50.804;7.126;2023-06-22T13:49:13;5.32;;;4.40;;
33954;SDS011;20233;50.804;7.126;2023-06-22T13:51:40;5.38;;;3.65;;
33954;SDS011;20233;50.804;7.126;2023-06-22T13:54:06;5.68;;;4.03;;
33954;SDS011;20233;50.804;7.126;2023-06-22T13:56:35;5.18;;;4.30;;
33954;SDS011;20233;50.804;7.126;2023-06-22T13:59:03;5.45;;;3.95;;
33954;SDS011;20233;50.804;7.126;2023-06-22T14:01:28;4.97;;;4.47;;
33954;SDS011;20233;50.804;7.126;2023-06-22T14:03:56;6.30;;;4.68;;
33954;SDS011;20233;50.804;7.126;2023-06-22T14:06:23;6.65;;;4.90;;
33954;SDS011;20233;50.804;7.126;2023-06-22T14:08:50;8.70;;;5.80;;
33954;SDS011;20233;50.804;7.126;2023-06-22T14:11:16;6.93;;;6.22;;
33954;SDS011;20233;50.804;7.126;2023-06-22T14:13:42;7.45;;;6.43;;
33954;SDS011;20233;50.804;7.126;2023-06-22T14:16:09;8.00;;;6.68;;
33954;SDS011;20233;50.804;7.126;2023-06-22T14:18:36;7.45;;;6.65;;
33954;SDS011;20233;50.804;7.126;2023-06-22T14:21:02;8.50;;;7.20;;
33954;SDS011;20233;50.804;7.126;2023-06-22T14:23:28;9.70;;;7.47;;
33954;SDS011;20233;50.804;7.126;2023-06-22T14:25:56;8.10;;;7.32;;
33954;SDS011;20233;50.804;7.126;2023-06-22T14:28:23;8.82;;;7.90;;
33954;SDS011;20233;50.804;7.126;2023-06-22T14:30:49;11.45;;;8.00;;
33954;SDS011;20233;50.804;7.126;2023-06-22T14:33:16;8.68;;;7.78;;
33954;SDS011;20233;50.804;7.126;2023-06-22T14:35:43;8.60;;;7.28;;
33954;SDS011;20233;50.804;7.126;2023-06-22T14:38:10;8.80;;;7.78;;
33954;SDS011;20233;50.804;7.126;2023-06-22T14:40:36;8.98;;;7.75;;
33954;SDS011;20233;50.804;7.126;2023-06-22T14:43:04;22.10;;;12.18;;
33954;SDS011;20233;50.804;7.126;2023-06-22T14:45:30;19.13;;;11.73;;
33954;SDS011;20233;50.804;7.126;2023-06-22T14:47:56;23.33;;;13.60;;
33954;SDS011;20233;50.804;7.126;2023-06-22T14:50:22;15.15;;;10.45;;
33954;SDS011;20233;50.804;7.126;2023-06-22T14:52:48;10.70;;;9.52;;
33954;SDS011;20233;50.804;7.126;2023-06-22T14:55:15;15.13;;;11.50;;
33954;SDS011;20233;50.804;7.126;2023-06-22T14:57:41;12.82;;;11.27;;
33954;SDS011;20233;50.804;7.126;2023-06-22T15:00:07;15.32;;;11.25;;
33954;SDS011;20233;50.804;7.126;2023-06-22T15:02:33;10.90;;;8.73;;
33954;SDS011;20233;50.804;7.126;2023-06-22T15:05:00;10.45;;;7.55;;
33954;SDS011;20233;50.804;7.126;2023-06-22T15:07:26;12.95;;;8.80;;
33954;SDS011;20233;50.804;7.126;2023-06-22T15:09:54;21.65;;;9.35;;
33954;SDS011;20233;50.804;7.126;2023-06-22T15:12:20;19.60;;;9.88;;
33954;SDS011;20233;50.804;7.126;2023-06-22T15:14:47;17.73;;;8.77;;
33954;SDS011;20233;50.804;7.126;2023-06-22T15:17:13;11.32;;;7.90;;
33954;SDS011;20233;50.804;7.126;2023-06-22T15:19:40;10.05;;;7.90;;
33954;SDS011;20233;50.804;7.126;2023-06-22T15:22:07;11.07;;;8.43;;
33954;SDS011;20233;50.804;7.126;2023-06-22T15:24:33;11.02;;;7.75;;
33954;SDS011;20233;50.804;7.126;2023-06-22T15:27:00;9.52;;;7.05;;
33954;SDS011;20233;50.804;7.126;2023-06-22T15:29:27;11.68;;;7.47;;
33954;SDS011;20233;50.804;7.126;2023-06-22T15:31:59;10.68;;;7.35;;
33954;SDS011;20233;50.804;7.126;2023-06-22T15:34:25;11.45;;;7.95;;
33954;SDS011;20233;50.804;7.126;2023-06-22T15:36:51;13.20;;;8.98;;
33954;SDS011;20233;50.804;7.126;2023-06-22T15:39:17;12.18;;;9.25;;
33954;SDS011;20233;50.804;7.126;2023-06-22T15:41:43;10.88;;;9.02;;
33954;SDS011;20233;50.804;7.126;2023-06-22T15:44:09;10.02;;;8.48;;
33954;SDS011;20233;50.804;7.126;2023-06-22T15:46:36;12.82;;;9.50;;